sensor_id;sensor_type;location;lat;lon;timestamp;P1;durP1;ratioP1;P2;durP2;ratioP2
75997;SDS011;64685;48.762;44.822;2023-04-25T00:00:06;6.95;;;2.45;;
75997;SDS011;64685;48.762;44.822;2023-04-25T00:05:13;9.25;;;3.15;;
75997;SDS011;64685;48.762;44.822;2023-04-25T00:10:17;8.27;;;3.25;;
75997;SDS011;64685;48.762;44.822;2023-04-25T00:15:21;15.00;;;6.15;;
75997;SDS011;64685;48.762;44.822;2023-04-25T00:20:23;14.68;;;5.70;;
75997;SDS011;64685;48.762;44.822;2023-04-25T00:25:26;11.90;;;5.45;;
75997;SDS011;64685;48.762;44.822;2023-04-25T00:30:29;14.13;;;6.70;;
75997;SDS011;64685;48.762;44.822;2023-04-25T00:35:31;9.75;;;3.13;;
75997;SDS011;64685;48.762;44.822;2023-04-25T00:40:34;9.18;;;3.42;;
75997;SDS011;64685;48.762;44.822;2023-04-25T00:45:38;12.32;;;4.50;;
75997;SDS011;64685;48.762;44.822;2023-04-25T00:50:41;19.13;;;7.28;;
75997;SDS011;64685;48.762;44.822;2023-04-25T00:55:53;25.05;;;7.90;;
75997;SDS011;64685;48.762;44.822;2023-04-25T01:00:56;15.07;;;6.18;;
75997;SDS011;64685;48.762;44.822;2023-04-25T01:05:59;14.60;;;5.45;;
75997;SDS011;64685;48.762;44.822;2023-04-25T01:11:02;12.60;;;4.47;;
75997;SDS011;64685;48.762;44.822;2023-04-25T01:16:04;16.77;;;6.35;;
75997;SDS011;64685;48.762;44.822;2023-04-25T01:21:07;17.15;;;6.30;;
75997;SDS011;64685;48.762;44.822;2023-04-25T01:26:12;10.65;;;3.38;;
75997;SDS011;64685;48.762;44.822;2023-04-25T01:31:15;14.80;;;5.75;;
75997;SDS011;64685;48.762;44.822;2023-04-25T01:36:19;32.47;;;14.05;;
75997;SDS011;64685;48.762;44.822;2023-04-25T01:41:23;23.85;;;9.85;;
75997;SDS011;64685;48.762;44.822;2023-04-25T01:46:26;7.35;;;3.55;;
75997;SDS011;64685;48.762;44.822;2023-04-25T01:51:29;7.25;;;2.33;;
75997;SDS011;64685;48.762;44.822;2023-04-25T01:56:33;7.03;;;2.75;;
75997;SDS011;64685;48.762;44.822;2023-04-25T02:01:41;6.95;;;2.55;;
75997;SDS011;64685;48.762;44.822;2023-04-25T02:06:55;9.23;;;2.88;;
75997;SDS011;64685;48.762;44.822;2023-04-25T02:12:04;10.10;;;3.00;;
75997;SDS011;64685;48.762;44.822;2023-04-25T02:17:29;7.85;;;2.63;;
75997;SDS011;64685;48.762;44.822;2023-04-25T02:22:33;8.15;;;2.90;;
75997;SDS011;64685;48.762;44.822;2023-04-25T02:27:39;12.25;;;3.28;;
75997;SDS011;64685;48.762;44.822;2023-04-25T02:32:42;7.88;;;3.15;;
75997;SDS011;64685;48.762;44.822;2023-04-25T02:37:45;7.57;;;3.42;;
75997;SDS011;64685;48.762;44.822;2023-04-25T02:42:47;10.82;;;3.72;;
75997;SDS011;64685;48.762;44.822;2023-04-25T02:47:50;9.95;;;3.78;;
75997;SDS011;64685;48.762;44.822;2023-04-25T02:52:53;8.88;;;3.55;;
75997;SDS011;64685;48.762;44.822;2023-04-25T02:58:02;16.63;;;7.22;;
75997;SDS011;64685;48.762;44.822;2023-04-25T03:03:16;31.25;;;14.25;;
75997;SDS011;64685;48.762;44.822;2023-04-25T03:08:25;28.80;;;13.55;;
75997;SDS011;64685;48.762;44.822;2023-04-25T03:13:33;35.30;;;15.32;;
75997;SDS011;64685;48.762;44.822;2023-04-25T03:18:36;28.17;;;12.43;;
75997;SDS011;64685;48.762;44.822;2023-04-25T03:23:38;15.65;;;7.22;;
75997;SDS011;64685;48.762;44.822;2023-04-25T03:28:42;13.75;;;6.70;;
75997;SDS011;64685;48.762;44.822;2023-04-25T03:33:44;19.70;;;7.72;;
75997;SDS011;64685;48.762;44.822;2023-04-25T03:38:47;22.38;;;9.10;;
75997;SDS011;64685;48.762;44.822;2023-04-25T03:48:54;36.38;;;15.07;;
75997;SDS011;64685;48.762;44.822;2023-04-25T03:54:13;14.45;;;5.25;;
75997;SDS011;64685;48.762;44.822;2023-04-25T03:59:42;8.90;;;3.40;;
75997;SDS011;64685;48.762;44.822;2023-04-25T04:04:46;10.38;;;3.42;;
75997;SDS011;64685;48.762;44.822;2023-04-25T04:09:50;12.75;;;3.67;;
75997;SDS011;64685;48.762;44.822;2023-04-25T04:14:59;11.65;;;4.55;;
75997;SDS011;64685;48.762;44.822;2023-04-25T04:20:04;8.38;;;3.67;;
75997;SDS011;64685;48.762;44.822;2023-04-25T04:25:13;9.45;;;4.13;;
75997;SDS011;64685;48.762;44.822;2023-04-25T04:30:36;11.77;;;4.03;;
75997;SDS011;64685;48.762;44.822;2023-04-25T04:35:42;11.48;;;3.70;;
75997;SDS011;64685;48.762;44.822;2023-04-25T04:40:46;11.98;;;3.47;;
75997;SDS011;64685;48.762;44.822;2023-04-25T04:45:58;11.23;;;3.75;;
75997;SDS011;64685;48.762;44.822;2023-04-25T04:51:11;13.75;;;5.47;;
75997;SDS011;64685;48.762;44.822;2023-04-25T04:56:20;12.93;;;4.95;;
75997;SDS011;64685;48.762;44.822;2023-04-25T05:01:37;13.52;;;6.20;;
75997;SDS011;64685;48.762;44.822;2023-04-25T05:12:19;9.30;;;3.85;;
75997;SDS011;64685;48.762;44.822;2023-04-25T05:17:47;11.73;;;3.53;;
75997;SDS011;64685;48.762;44.822;2023-04-25T05:22:58;9.20;;;3.65;;
75997;SDS011;64685;48.762;44.822;2023-04-25T05:28:23;10.13;;;3.97;;
75997;SDS011;64685;48.762;44.822;2023-04-25T05:33:49;8.07;;;3.03;;
75997;SDS011;64685;48.762;44.822;2023-04-25T05:38:53;9.05;;;3.33;;
75997;SDS011;64685;48.762;44.822;2023-04-25T05:43:55;9.02;;;3.70;;
75997;SDS011;64685;48.762;44.822;2023-04-25T05:49:14;8.65;;;3.30;;
75997;SDS011;64685;48.762;44.822;2023-04-25T05:54:49;10.93;;;2.75;;
75997;SDS011;64685;48.762;44.822;2023-04-25T05:59:52;10.20;;;3.80;;
75997;SDS011;64685;48.762;44.822;2023-04-25T06:04:57;8.20;;;3.17;;
75997;SDS011;64685;48.762;44.822;2023-04-25T06:10:00;9.48;;;3.45;;
75997;SDS011;64685;48.762;44.822;2023-04-25T06:15:04;9.15;;;3.38;;
75997;SDS011;64685;48.762;44.822;2023-04-25T06:20:27;9.65;;;3.17;;
75997;SDS011;64685;48.762;44.822;2023-04-25T06:25:33;7.75;;;3.00;;
75997;SDS011;64685;48.762;44.822;2023-04-25T06:30:36;8.85;;;2.92;;
75997;SDS011;64685;48.762;44.822;2023-04-25T06:35:46;8.95;;;3.53;;
75997;SDS011;64685;48.762;44.822;2023-04-25T06:40:52;11.02;;;3.50;;
75997;SDS011;64685;48.762;44.822;2023-04-25T06:45:55;11.05;;;4.18;;
75997;SDS011;64685;48.762;44.822;2023-04-25T06:51:02;11.45;;;4.05;;
75997;SDS011;64685;48.762;44.822;2023-04-25T06:56:05;12.40;;;3.72;;
75997;SDS011;64685;48.762;44.822;2023-04-25T07:01:26;7.30;;;3.08;;
75997;SDS011;64685;48.762;44.822;2023-04-25T07:06:29;7.60;;;3.15;;
75997;SDS011;64685;48.762;44.822;2023-04-25T07:11:33;10.27;;;3.10;;
75997;SDS011;64685;48.762;44.822;2023-04-25T07:16:36;11.63;;;3.63;;
75997;SDS011;64685;48.762;44.822;2023-04-25T07:21:47;7.13;;;3.35;;
75997;SDS011;64685;48.762;44.822;2023-04-25T07:26:50;9.32;;;3.70;;
75997;SDS011;64685;48.762;44.822;2023-04-25T07:32:05;10.98;;;3.92;;
75997;SDS011;64685;48.762;44.822;2023-04-25T07:37:08;11.80;;;4.60;;
75997;SDS011;64685;48.762;44.822;2023-04-25T07:42:20;12.75;;;5.22;;
75997;SDS011;64685;48.762;44.822;2023-04-25T07:47:23;10.95;;;4.90;;
75997;SDS011;64685;48.762;44.822;2023-04-25T07:52:27;12.00;;;5.43;;
75997;SDS011;64685;48.762;44.822;2023-04-25T07:57:37;11.23;;;5.43;;
75997;SDS011;64685;48.762;44.822;2023-04-25T08:02:40;10.52;;;4.47;;
75997;SDS011;64685;48.762;44.822;2023-04-25T08:07:48;11.50;;;4.93;;
75997;SDS011;64685;48.762;44.822;2023-04-25T08:12:51;13.70;;;5.10;;
75997;SDS011;64685;48.762;44.822;2023-04-25T08:17:54;10.05;;;4.25;;
75997;SDS011;64685;48.762;44.822;2023-04-25T08:22:57;9.77;;;4.28;;
75997;SDS011;64685;48.762;44.822;2023-04-25T08:28:18;11.88;;;4.93;;
75997;SDS011;64685;48.762;44.822;2023-04-25T08:33:21;13.18;;;4.95;;
75997;SDS011;64685;48.762;44.822;2023-04-25T08:38:42;9.57;;;4.50;;
75997;SDS011;64685;48.762;44.822;2023-04-25T08:43:47;12.25;;;5.00;;
75997;SDS011;64685;48.762;44.822;2023-04-25T08:48:53;11.18;;;5.25;;
75997;SDS011;64685;48.762;44.822;2023-04-25T08:54:09;11.65;;;4.78;;
75997;SDS011;64685;48.762;44.822;2023-04-25T08:59:16;11.10;;;5.00;;
75997;SDS011;64685;48.762;44.822;2023-04-25T09:04:20;13.57;;;4.28;;
75997;SDS011;64685;48.762;44.822;2023-04-25T09:09:23;10.75;;;4.68;;
75997;SDS011;64685;48.762;44.822;2023-04-25T09:14:26;11.27;;;4.35;;
75997;SDS011;64685;48.762;44.822;2023-04-25T09:19:36;8.25;;;4.72;;
75997;SDS011;64685;48.762;44.822;2023-04-25T09:24:54;8.38;;;4.43;;
75997;SDS011;64685;48.762;44.822;2023-04-25T09:30:04;7.55;;;3.95;;
75997;SDS011;64685;48.762;44.822;2023-04-25T09:35:23;9.63;;;4.45;;
75997;SDS011;64685;48.762;44.822;2023-04-25T09:40:34;9.07;;;3.63;;
75997;SDS011;64685;48.762;44.822;2023-04-25T09:45:47;6.72;;;3.22;;
75997;SDS011;64685;48.762;44.822;2023-04-25T09:51:04;9.65;;;4.20;;
75997;SDS011;64685;48.762;44.822;2023-04-25T09:56:11;9.93;;;4.10;;
75997;SDS011;64685;48.762;44.822;2023-04-25T10:01:15;9.18;;;3.63;;
75997;SDS011;64685;48.762;44.822;2023-04-25T10:06:32;7.60;;;3.63;;
75997;SDS011;64685;48.762;44.822;2023-04-25T10:11:36;8.82;;;3.97;;
75997;SDS011;64685;48.762;44.822;2023-04-25T10:16:41;8.52;;;3.25;;
75997;SDS011;64685;48.762;44.822;2023-04-25T10:22:04;8.85;;;3.45;;
75997;SDS011;64685;48.762;44.822;2023-04-25T10:27:16;13.35;;;4.72;;
75997;SDS011;64685;48.762;44.822;2023-04-25T10:32:20;12.82;;;4.15;;
75997;SDS011;64685;48.762;44.822;2023-04-25T10:37:23;10.73;;;4.05;;
75997;SDS011;64685;48.762;44.822;2023-04-25T10:42:26;8.48;;;3.47;;
75997;SDS011;64685;48.762;44.822;2023-04-25T10:47:35;9.38;;;3.85;;
75997;SDS011;64685;48.762;44.822;2023-04-25T10:52:39;9.00;;;4.30;;
75997;SDS011;64685;48.762;44.822;2023-04-25T11:02:57;6.97;;;2.80;;
75997;SDS011;64685;48.762;44.822;2023-04-25T11:08:01;8.60;;;2.60;;
75997;SDS011;64685;48.762;44.822;2023-04-25T11:13:09;7.22;;;2.70;;
75997;SDS011;64685;48.762;44.822;2023-04-25T11:18:15;7.18;;;2.85;;
75997;SDS011;64685;48.762;44.822;2023-04-25T11:23:18;8.10;;;2.47;;
75997;SDS011;64685;48.762;44.822;2023-04-25T11:28:21;7.13;;;2.65;;
75997;SDS011;64685;48.762;44.822;2023-04-25T11:33:28;5.20;;;2.17;;
75997;SDS011;64685;48.762;44.822;2023-04-25T11:38:30;5.63;;;2.20;;
75997;SDS011;64685;48.762;44.822;2023-04-25T11:43:34;8.65;;;2.70;;
75997;SDS011;64685;48.762;44.822;2023-04-25T11:48:38;7.10;;;2.50;;
75997;SDS011;64685;48.762;44.822;2023-04-25T11:53:42;8.80;;;2.55;;
75997;SDS011;64685;48.762;44.822;2023-04-25T11:59:02;6.75;;;2.10;;
75997;SDS011;64685;48.762;44.822;2023-04-25T12:04:12;6.43;;;2.30;;
75997;SDS011;64685;48.762;44.822;2023-04-25T12:09:17;4.60;;;1.90;;
75997;SDS011;64685;48.762;44.822;2023-04-25T12:14:24;6.82;;;1.73;;
75997;SDS011;64685;48.762;44.822;2023-04-25T12:26:57;4.50;;;1.98;;
75997;SDS011;64685;48.762;44.822;2023-04-25T12:32:01;4.68;;;1.77;;
75997;SDS011;64685;48.762;44.822;2023-04-25T12:37:04;5.75;;;2.58;;
75997;SDS011;64685;48.762;44.822;2023-04-25T12:42:07;4.18;;;1.70;;
75997;SDS011;64685;48.762;44.822;2023-04-25T12:47:10;3.72;;;1.73;;
75997;SDS011;64685;48.762;44.822;2023-04-25T12:52:13;3.25;;;1.65;;
75997;SDS011;64685;48.762;44.822;2023-04-25T12:57:16;5.97;;;1.90;;
75997;SDS011;64685;48.762;44.822;2023-04-25T13:02:18;4.95;;;2.03;;
75997;SDS011;64685;48.762;44.822;2023-04-25T13:07:21;6.63;;;2.15;;
75997;SDS011;64685;48.762;44.822;2023-04-25T13:12:23;4.88;;;1.50;;
75997;SDS011;64685;48.762;44.822;2023-04-25T13:17:26;4.55;;;2.50;;
75997;SDS011;64685;48.762;44.822;2023-04-25T13:22:29;5.25;;;1.35;;
75997;SDS011;64685;48.762;44.822;2023-04-25T13:27:32;5.15;;;1.88;;
75997;SDS011;64685;48.762;44.822;2023-04-25T13:32:36;3.65;;;1.60;;
75997;SDS011;64685;48.762;44.822;2023-04-25T13:37:39;3.83;;;1.35;;
75997;SDS011;64685;48.762;44.822;2023-04-25T13:42:42;2.65;;;1.20;;
75997;SDS011;64685;48.762;44.822;2023-04-25T13:47:47;4.22;;;1.30;;
75997;SDS011;64685;48.762;44.822;2023-04-25T13:52:50;4.20;;;1.20;;
75997;SDS011;64685;48.762;44.822;2023-04-25T13:57:52;3.00;;;1.33;;
75997;SDS011;64685;48.762;44.822;2023-04-25T14:02:55;4.38;;;2.00;;
75997;SDS011;64685;48.762;44.822;2023-04-25T14:07:58;4.15;;;1.38;;
75997;SDS011;64685;48.762;44.822;2023-04-25T14:13:03;3.63;;;1.02;;
75997;SDS011;64685;48.762;44.822;2023-04-25T14:18:06;4.10;;;1.10;;
75997;SDS011;64685;48.762;44.822;2023-04-25T14:23:09;3.10;;;1.00;;
75997;SDS011;64685;48.762;44.822;2023-04-25T14:28:11;1.55;;;0.50;;
75997;SDS011;64685;48.762;44.822;2023-04-25T14:33:14;1.70;;;0.60;;
75997;SDS011;64685;48.762;44.822;2023-04-25T14:38:17;2.13;;;0.47;;
75997;SDS011;64685;48.762;44.822;2023-04-25T14:43:20;7.53;;;0.80;;
75997;SDS011;64685;48.762;44.822;2023-04-25T14:48:23;2.60;;;0.60;;
75997;SDS011;64685;48.762;44.822;2023-04-25T14:53:26;1.02;;;0.38;;
75997;SDS011;64685;48.762;44.822;2023-04-25T14:58:29;0.45;;;0.30;;
75997;SDS011;64685;48.762;44.822;2023-04-25T15:03:31;2.42;;;0.50;;
75997;SDS011;64685;48.762;44.822;2023-04-25T15:08:34;0.75;;;0.32;;
75997;SDS011;64685;48.762;44.822;2023-04-25T15:13:38;1.20;;;0.35;;
75997;SDS011;64685;48.762;44.822;2023-04-25T15:18:59;1.60;;;0.38;;
75997;SDS011;64685;48.762;44.822;2023-04-25T15:24:01;1.45;;;0.40;;
75997;SDS011;64685;48.762;44.822;2023-04-25T15:29:04;1.15;;;0.40;;
75997;SDS011;64685;48.762;44.822;2023-04-25T15:34:07;1.55;;;0.50;;
75997;SDS011;64685;48.762;44.822;2023-04-25T15:39:10;2.22;;;0.75;;
75997;SDS011;64685;48.762;44.822;2023-04-25T15:44:12;1.30;;;0.40;;
75997;SDS011;64685;48.762;44.822;2023-04-25T15:49:33;3.00;;;0.65;;
75997;SDS011;64685;48.762;44.822;2023-04-25T15:54:55;2.45;;;0.60;;
75997;SDS011;64685;48.762;44.822;2023-04-25T15:59:58;2.42;;;0.50;;
75997;SDS011;64685;48.762;44.822;2023-04-25T16:05:00;1.05;;;0.40;;
75997;SDS011;64685;48.762;44.822;2023-04-25T16:10:04;1.30;;;0.47;;
75997;SDS011;64685;48.762;44.822;2023-04-25T16:15:08;1.17;;;0.60;;
75997;SDS011;64685;48.762;44.822;2023-04-25T16:20:11;1.20;;;0.57;;
75997;SDS011;64685;48.762;44.822;2023-04-25T16:25:14;2.03;;;0.55;;
75997;SDS011;64685;48.762;44.822;2023-04-25T16:30:17;1.70;;;0.70;;
75997;SDS011;64685;48.762;44.822;2023-04-25T16:35:19;2.80;;;0.88;;
75997;SDS011;64685;48.762;44.822;2023-04-25T16:40:22;3.10;;;0.77;;
75997;SDS011;64685;48.762;44.822;2023-04-25T16:45:25;2.00;;;0.85;;
75997;SDS011;64685;48.762;44.822;2023-04-25T16:50:27;3.13;;;0.75;;
75997;SDS011;64685;48.762;44.822;2023-04-25T16:55:30;4.03;;;1.08;;
75997;SDS011;64685;48.762;44.822;2023-04-25T17:00:33;1.80;;;0.60;;
75997;SDS011;64685;48.762;44.822;2023-04-25T17:05:36;2.58;;;0.88;;
75997;SDS011;64685;48.762;44.822;2023-04-25T17:10:38;3.08;;;1.05;;
75997;SDS011;64685;48.762;44.822;2023-04-25T17:15:41;2.72;;;1.10;;
75997;SDS011;64685;48.762;44.822;2023-04-25T17:20:44;7.93;;;1.48;;
75997;SDS011;64685;48.762;44.822;2023-04-25T17:25:47;5.82;;;1.73;;
75997;SDS011;64685;48.762;44.822;2023-04-25T17:30:50;5.55;;;2.10;;
75997;SDS011;64685;48.762;44.822;2023-04-25T17:35:53;5.38;;;1.55;;
75997;SDS011;64685;48.762;44.822;2023-04-25T17:40:55;6.72;;;1.63;;
75997;SDS011;64685;48.762;44.822;2023-04-25T17:45:58;6.22;;;1.50;;
75997;SDS011;64685;48.762;44.822;2023-04-25T17:51:01;6.07;;;1.55;;
75997;SDS011;64685;48.762;44.822;2023-04-25T17:56:03;6.00;;;1.70;;
75997;SDS011;64685;48.762;44.822;2023-04-25T18:01:20;6.28;;;1.90;;
75997;SDS011;64685;48.762;44.822;2023-04-25T18:06:23;3.65;;;1.60;;
75997;SDS011;64685;48.762;44.822;2023-04-25T18:11:26;8.02;;;1.92;;
75997;SDS011;64685;48.762;44.822;2023-04-25T18:16:30;4.45;;;1.58;;
75997;SDS011;64685;48.762;44.822;2023-04-25T18:21:33;4.00;;;1.83;;
75997;SDS011;64685;48.762;44.822;2023-04-25T18:26:35;3.63;;;1.40;;
75997;SDS011;64685;48.762;44.822;2023-04-25T18:31:38;4.72;;;2.17;;
75997;SDS011;64685;48.762;44.822;2023-04-25T18:36:41;3.35;;;1.17;;
75997;SDS011;64685;48.762;44.822;2023-04-25T18:41:44;3.63;;;1.50;;
75997;SDS011;64685;48.762;44.822;2023-04-25T18:47:00;3.75;;;1.45;;
75997;SDS011;64685;48.762;44.822;2023-04-25T18:52:03;5.30;;;2.00;;
75997;SDS011;64685;48.762;44.822;2023-04-25T18:57:06;6.35;;;2.05;;
75997;SDS011;64685;48.762;44.822;2023-04-25T19:02:09;4.10;;;1.60;;
75997;SDS011;64685;48.762;44.822;2023-04-25T19:07:11;6.63;;;2.03;;
75997;SDS011;64685;48.762;44.822;2023-04-25T19:12:15;3.17;;;1.63;;
75997;SDS011;64685;48.762;44.822;2023-04-25T19:17:18;5.18;;;1.70;;
75997;SDS011;64685;48.762;44.822;2023-04-25T19:22:21;5.15;;;1.83;;
75997;SDS011;64685;48.762;44.822;2023-04-25T19:27:23;6.25;;;2.35;;
75997;SDS011;64685;48.762;44.822;2023-04-25T19:32:25;4.53;;;1.52;;
75997;SDS011;64685;48.762;44.822;2023-04-25T19:37:28;5.22;;;2.13;;
75997;SDS011;64685;48.762;44.822;2023-04-25T19:42:31;3.95;;;1.67;;
75997;SDS011;64685;48.762;44.822;2023-04-25T19:47:34;4.57;;;1.90;;
75997;SDS011;64685;48.762;44.822;2023-04-25T19:52:40;4.07;;;2.03;;
75997;SDS011;64685;48.762;44.822;2023-04-25T19:57:43;4.97;;;2.42;;
75997;SDS011;64685;48.762;44.822;2023-04-25T20:02:45;4.53;;;2.25;;
75997;SDS011;64685;48.762;44.822;2023-04-25T20:07:48;4.90;;;1.98;;
75997;SDS011;64685;48.762;44.822;2023-04-25T20:12:51;8.05;;;2.85;;
75997;SDS011;64685;48.762;44.822;2023-04-25T20:17:55;7.32;;;2.40;;
75997;SDS011;64685;48.762;44.822;2023-04-25T20:22:57;7.22;;;2.72;;
75997;SDS011;64685;48.762;44.822;2023-04-25T20:28:00;7.75;;;2.80;;
75997;SDS011;64685;48.762;44.822;2023-04-25T20:33:03;7.03;;;2.83;;
75997;SDS011;64685;48.762;44.822;2023-04-25T20:38:08;8.52;;;3.35;;
75997;SDS011;64685;48.762;44.822;2023-04-25T20:43:10;8.90;;;3.80;;
75997;SDS011;64685;48.762;44.822;2023-04-25T20:48:13;10.45;;;3.88;;
75997;SDS011;64685;48.762;44.822;2023-04-25T20:53:16;7.80;;;3.17;;
75997;SDS011;64685;48.762;44.822;2023-04-25T20:58:18;6.57;;;2.80;;
75997;SDS011;64685;48.762;44.822;2023-04-25T21:03:22;6.22;;;2.45;;
75997;SDS011;64685;48.762;44.822;2023-04-25T21:08:24;5.90;;;2.22;;
75997;SDS011;64685;48.762;44.822;2023-04-25T21:13:27;6.95;;;2.60;;
75997;SDS011;64685;48.762;44.822;2023-04-25T21:18:29;9.73;;;2.60;;
75997;SDS011;64685;48.762;44.822;2023-04-25T21:23:32;4.38;;;2.03;;
75997;SDS011;64685;48.762;44.822;2023-04-25T21:28:35;3.97;;;1.80;;
75997;SDS011;64685;48.762;44.822;2023-04-25T21:33:38;5.00;;;2.55;;
75997;SDS011;64685;48.762;44.822;2023-04-25T21:38:40;6.28;;;2.90;;
75997;SDS011;64685;48.762;44.822;2023-04-25T21:43:43;6.75;;;2.58;;
75997;SDS011;64685;48.762;44.822;2023-04-25T21:48:46;6.35;;;3.03;;
75997;SDS011;64685;48.762;44.822;2023-04-25T21:53:48;6.03;;;2.70;;
75997;SDS011;64685;48.762;44.822;2023-04-25T21:59:09;4.95;;;2.63;;
75997;SDS011;64685;48.762;44.822;2023-04-25T22:04:12;8.85;;;3.80;;
75997;SDS011;64685;48.762;44.822;2023-04-25T22:09:15;8.32;;;3.67;;
75997;SDS011;64685;48.762;44.822;2023-04-25T22:14:19;7.40;;;3.45;;
75997;SDS011;64685;48.762;44.822;2023-04-25T22:19:22;8.35;;;3.28;;
75997;SDS011;64685;48.762;44.822;2023-04-25T22:24:24;9.82;;;4.38;;
75997;SDS011;64685;48.762;44.822;2023-04-25T22:29:31;7.43;;;3.80;;
75997;SDS011;64685;48.762;44.822;2023-04-25T22:34:33;7.85;;;3.75;;
75997;SDS011;64685;48.762;44.822;2023-04-25T22:39:36;8.88;;;4.00;;
75997;SDS011;64685;48.762;44.822;2023-04-25T22:44:58;8.15;;;4.13;;
75997;SDS011;64685;48.762;44.822;2023-04-25T22:50:19;8.38;;;3.50;;
75997;SDS011;64685;48.762;44.822;2023-04-25T22:55:22;8.05;;;3.67;;
75997;SDS011;64685;48.762;44.822;2023-04-25T23:00:24;11.38;;;5.32;;
75997;SDS011;64685;48.762;44.822;2023-04-25T23:05:30;8.75;;;4.25;;
75997;SDS011;64685;48.762;44.822;2023-04-25T23:10:33;11.00;;;5.13;;
75997;SDS011;64685;48.762;44.822;2023-04-25T23:15:36;8.32;;;3.70;;
75997;SDS011;64685;48.762;44.822;2023-04-25T23:20:39;9.85;;;4.57;;
75997;SDS011;64685;48.762;44.822;2023-04-25T23:25:41;8.68;;;4.45;;
75997;SDS011;64685;48.762;44.822;2023-04-25T23:30:44;13.40;;;6.88;;
75997;SDS011;64685;48.762;44.822;2023-04-25T23:35:46;11.95;;;5.82;;
75997;SDS011;64685;48.762;44.822;2023-04-25T23:40:49;14.32;;;6.03;;
75997;SDS011;64685;48.762;44.822;2023-04-25T23:45:51;11.57;;;5.75;;
75997;SDS011;64685;48.762;44.822;2023-04-25T23:50:55;13.38;;;6.65;;
75997;SDS011;64685;48.762;44.822;2023-04-25T23:55:58;11.98;;;6.10;;
